sensor_id;sensor_type;location;lat;lon;timestamp;P1;durP1;ratioP1;P2;durP2;ratioP2
49998;SDS011;68071;45.062;7.356;2023-03-16T00:02:58;3.92;;;2.80;;
49998;SDS011;68071;45.062;7.356;2023-03-16T00:06:02;2.38;;;1.85;;
49998;SDS011;68071;45.062;7.356;2023-03-16T00:09:07;3.53;;;2.85;;
49998;SDS011;68071;45.062;7.356;2023-03-16T00:12:16;2.88;;;2.60;;
49998;SDS011;68071;45.062;7.356;2023-03-16T00:15:21;3.53;;;2.83;;
49998;SDS011;68071;45.062;7.356;2023-03-16T00:18:26;3.88;;;2.85;;
49998;SDS011;68071;45.062;7.356;2023-03-16T00:21:31;2.58;;;2.08;;
49998;SDS011;68071;45.062;7.356;2023-03-16T00:24:37;2.65;;;1.63;;
49998;SDS011;68071;45.062;7.356;2023-03-16T00:27:41;2.55;;;1.42;;
49998;SDS011;68071;45.062;7.356;2023-03-16T00:30:45;2.20;;;1.40;;
49998;SDS011;68071;45.062;7.356;2023-03-16T00:33:52;3.42;;;2.50;;
49998;SDS011;68071;45.062;7.356;2023-03-16T00:36:57;4.10;;;2.90;;
49998;SDS011;68071;45.062;7.356;2023-03-16T00:40:01;2.72;;;1.83;;
49998;SDS011;68071;45.062;7.356;2023-03-16T00:43:07;2.97;;;2.47;;
49998;SDS011;68071;45.062;7.356;2023-03-16T00:46:12;2.17;;;1.90;;
49998;SDS011;68071;45.062;7.356;2023-03-16T00:49:20;3.47;;;2.63;;
49998;SDS011;68071;45.062;7.356;2023-03-16T00:52:24;2.95;;;2.25;;
49998;SDS011;68071;45.062;7.356;2023-03-16T00:55:30;3.55;;;2.15;;
49998;SDS011;68071;45.062;7.356;2023-03-16T00:58:36;2.58;;;1.90;;
49998;SDS011;68071;45.062;7.356;2023-03-16T01:01:40;2.45;;;2.10;;
49998;SDS011;68071;45.062;7.356;2023-03-16T01:04:44;2.05;;;1.42;;
49998;SDS011;68071;45.062;7.356;2023-03-16T01:07:48;1.45;;;1.17;;
49998;SDS011;68071;45.062;7.356;2023-03-16T01:10:55;2.58;;;1.40;;
49998;SDS011;68071;45.062;7.356;2023-03-16T01:14:00;1.90;;;1.33;;
49998;SDS011;68071;45.062;7.356;2023-03-16T01:17:04;2.17;;;1.30;;
49998;SDS011;68071;45.062;7.356;2023-03-16T01:20:11;2.95;;;1.95;;
49998;SDS011;68071;45.062;7.356;2023-03-16T01:23:16;1.45;;;1.23;;
49998;SDS011;68071;45.062;7.356;2023-03-16T01:26:21;2.60;;;1.50;;
49998;SDS011;68071;45.062;7.356;2023-03-16T01:29:27;1.95;;;1.20;;
49998;SDS011;68071;45.062;7.356;2023-03-16T01:32:34;2.38;;;1.40;;
49998;SDS011;68071;45.062;7.356;2023-03-16T01:35:39;1.63;;;1.20;;
49998;SDS011;68071;45.062;7.356;2023-03-16T01:38:44;1.60;;;1.40;;
49998;SDS011;68071;45.062;7.356;2023-03-16T01:41:49;1.95;;;1.13;;
49998;SDS011;68071;45.062;7.356;2023-03-16T01:44:55;1.83;;;1.30;;
49998;SDS011;68071;45.062;7.356;2023-03-16T01:48:08;1.55;;;1.30;;
49998;SDS011;68071;45.062;7.356;2023-03-16T01:54:37;1.73;;;1.30;;
49998;SDS011;68071;45.062;7.356;2023-03-16T01:57:48;2.65;;;1.25;;
49998;SDS011;68071;45.062;7.356;2023-03-16T02:00:52;1.67;;;1.50;;
49998;SDS011;68071;45.062;7.356;2023-03-16T02:04:03;1.45;;;1.25;;
49998;SDS011;68071;45.062;7.356;2023-03-16T02:07:16;1.40;;;1.25;;
49998;SDS011;68071;45.062;7.356;2023-03-16T02:10:22;2.75;;;1.48;;
49998;SDS011;68071;45.062;7.356;2023-03-16T02:13:27;1.30;;;1.20;;
49998;SDS011;68071;45.062;7.356;2023-03-16T02:16:32;1.98;;;1.40;;
49998;SDS011;68071;45.062;7.356;2023-03-16T02:22:45;2.17;;;1.45;;
49998;SDS011;68071;45.062;7.356;2023-03-16T02:29:28;2.17;;;1.98;;
49998;SDS011;68071;45.062;7.356;2023-03-16T02:32:53;2.42;;;2.20;;
49998;SDS011;68071;45.062;7.356;2023-03-16T02:36:00;2.10;;;1.88;;
49998;SDS011;68071;45.062;7.356;2023-03-16T02:39:04;3.97;;;2.13;;
49998;SDS011;68071;45.062;7.356;2023-03-16T02:42:18;1.70;;;1.58;;
49998;SDS011;68071;45.062;7.356;2023-03-16T02:45:35;3.95;;;2.10;;
49998;SDS011;68071;45.062;7.356;2023-03-16T02:48:49;2.00;;;1.80;;
49998;SDS011;68071;45.062;7.356;2023-03-16T02:52:00;2.97;;;1.90;;
49998;SDS011;68071;45.062;7.356;2023-03-16T02:55:07;2.67;;;2.47;;
49998;SDS011;68071;45.062;7.356;2023-03-16T02:58:12;2.67;;;2.35;;
49998;SDS011;68071;45.062;7.356;2023-03-16T03:01:17;1.73;;;1.50;;
49998;SDS011;68071;45.062;7.356;2023-03-16T03:04:21;1.70;;;1.60;;
49998;SDS011;68071;45.062;7.356;2023-03-16T03:07:26;2.13;;;1.92;;
49998;SDS011;68071;45.062;7.356;2023-03-16T03:10:39;2.33;;;1.60;;
49998;SDS011;68071;45.062;7.356;2023-03-16T03:13:43;2.30;;;2.10;;
49998;SDS011;68071;45.062;7.356;2023-03-16T03:16:54;3.58;;;3.28;;
49998;SDS011;68071;45.062;7.356;2023-03-16T03:19:58;2.13;;;1.63;;
49998;SDS011;68071;45.062;7.356;2023-03-16T03:23:05;5.22;;;4.57;;
49998;SDS011;68071;45.062;7.356;2023-03-16T03:26:11;17.70;;;15.85;;
49998;SDS011;68071;45.062;7.356;2023-03-16T03:29:18;1.75;;;1.58;;
49998;SDS011;68071;45.062;7.356;2023-03-16T03:32:22;18.65;;;16.63;;
49998;SDS011;68071;45.062;7.356;2023-03-16T03:35:26;9.68;;;8.82;;
49998;SDS011;68071;45.062;7.356;2023-03-16T03:38:31;4.47;;;3.13;;
49998;SDS011;68071;45.062;7.356;2023-03-16T03:41:35;3.58;;;2.53;;
49998;SDS011;68071;45.062;7.356;2023-03-16T03:44:41;2.97;;;2.40;;
49998;SDS011;68071;45.062;7.356;2023-03-16T03:47:45;3.60;;;3.03;;
49998;SDS011;68071;45.062;7.356;2023-03-16T03:50:56;3.72;;;3.00;;
49998;SDS011;68071;45.062;7.356;2023-03-16T03:54:33;3.95;;;3.55;;
49998;SDS011;68071;45.062;7.356;2023-03-16T03:57:49;4.60;;;4.30;;
49998;SDS011;68071;45.062;7.356;2023-03-16T04:00:54;4.72;;;3.80;;
49998;SDS011;68071;45.062;7.356;2023-03-16T04:03:58;4.32;;;3.92;;
49998;SDS011;68071;45.062;7.356;2023-03-16T04:07:02;3.40;;;3.10;;
49998;SDS011;68071;45.062;7.356;2023-03-16T04:10:07;3.63;;;3.25;;
49998;SDS011;68071;45.062;7.356;2023-03-16T04:13:15;3.75;;;3.33;;
49998;SDS011;68071;45.062;7.356;2023-03-16T04:16:19;4.85;;;4.35;;
49998;SDS011;68071;45.062;7.356;2023-03-16T04:19:28;4.70;;;3.38;;
49998;SDS011;68071;45.062;7.356;2023-03-16T04:22:33;3.47;;;3.17;;
49998;SDS011;68071;45.062;7.356;2023-03-16T04:25:40;4.82;;;4.40;;
49998;SDS011;68071;45.062;7.356;2023-03-16T04:31:53;4.65;;;4.22;;
49998;SDS011;68071;45.062;7.356;2023-03-16T04:38:17;4.05;;;3.65;;
49998;SDS011;68071;45.062;7.356;2023-03-16T04:41:33;4.13;;;3.50;;
49998;SDS011;68071;45.062;7.356;2023-03-16T04:44:45;3.60;;;3.30;;
49998;SDS011;68071;45.062;7.356;2023-03-16T04:47:51;4.03;;;3.53;;
49998;SDS011;68071;45.062;7.356;2023-03-16T04:50:57;3.70;;;3.40;;
49998;SDS011;68071;45.062;7.356;2023-03-16T04:54:04;4.45;;;3.92;;
49998;SDS011;68071;45.062;7.356;2023-03-16T04:57:14;3.90;;;3.38;;
49998;SDS011;68071;45.062;7.356;2023-03-16T05:00:24;3.85;;;3.45;;
49998;SDS011;68071;45.062;7.356;2023-03-16T05:03:58;4.38;;;3.38;;
49998;SDS011;68071;45.062;7.356;2023-03-16T05:07:02;3.50;;;3.20;;
49998;SDS011;68071;45.062;7.356;2023-03-16T05:10:13;4.13;;;3.55;;
49998;SDS011;68071;45.062;7.356;2023-03-16T05:13:19;3.47;;;3.03;;
49998;SDS011;68071;45.062;7.356;2023-03-16T05:16:27;4.32;;;3.92;;
49998;SDS011;68071;45.062;7.356;2023-03-16T05:22:38;3.53;;;3.22;;
49998;SDS011;68071;45.062;7.356;2023-03-16T05:26:12;3.65;;;3.33;;
49998;SDS011;68071;45.062;7.356;2023-03-16T05:29:17;5.28;;;4.03;;
49998;SDS011;68071;45.062;7.356;2023-03-16T05:32:23;4.38;;;3.97;;
49998;SDS011;68071;45.062;7.356;2023-03-16T05:35:28;4.30;;;3.40;;
49998;SDS011;68071;45.062;7.356;2023-03-16T05:38:38;3.42;;;3.13;;
49998;SDS011;68071;45.062;7.356;2023-03-16T05:41:45;3.78;;;3.33;;
49998;SDS011;68071;45.062;7.356;2023-03-16T05:45:09;4.00;;;3.35;;
49998;SDS011;68071;45.062;7.356;2023-03-16T05:48:24;4.45;;;3.40;;
49998;SDS011;68071;45.062;7.356;2023-03-16T05:51:31;4.65;;;4.20;;
49998;SDS011;68071;45.062;7.356;2023-03-16T05:54:37;7.65;;;6.20;;
49998;SDS011;68071;45.062;7.356;2023-03-16T05:57:42;4.00;;;3.60;;
49998;SDS011;68071;45.062;7.356;2023-03-16T06:00:47;4.18;;;3.78;;
49998;SDS011;68071;45.062;7.356;2023-03-16T06:03:59;5.28;;;3.70;;
49998;SDS011;68071;45.062;7.356;2023-03-16T06:07:09;3.80;;;3.25;;
49998;SDS011;68071;45.062;7.356;2023-03-16T06:10:14;8.60;;;5.97;;
49998;SDS011;68071;45.062;7.356;2023-03-16T06:13:19;7.85;;;7.15;;
49998;SDS011;68071;45.062;7.356;2023-03-16T06:16:24;5.43;;;4.18;;
49998;SDS011;68071;45.062;7.356;2023-03-16T06:19:29;4.65;;;3.80;;
49998;SDS011;68071;45.062;7.356;2023-03-16T06:22:38;4.80;;;4.25;;
49998;SDS011;68071;45.062;7.356;2023-03-16T06:25:45;5.60;;;4.57;;
49998;SDS011;68071;45.062;7.356;2023-03-16T06:28:50;4.70;;;4.22;;
49998;SDS011;68071;45.062;7.356;2023-03-16T06:31:54;7.22;;;5.72;;
49998;SDS011;68071;45.062;7.356;2023-03-16T06:35:00;5.00;;;2.93;;
49998;SDS011;68071;45.062;7.356;2023-03-16T06:38:06;4.25;;;3.13;;
49998;SDS011;68071;45.062;7.356;2023-03-16T06:41:29;3.50;;;2.80;;
49998;SDS011;68071;45.062;7.356;2023-03-16T06:44:32;5.07;;;3.10;;
49998;SDS011;68071;45.062;7.356;2023-03-16T06:47:42;4.53;;;3.10;;
49998;SDS011;68071;45.062;7.356;2023-03-16T06:50:47;4.27;;;2.70;;
49998;SDS011;68071;45.062;7.356;2023-03-16T06:53:57;4.60;;;2.47;;
49998;SDS011;68071;45.062;7.356;2023-03-16T06:57:02;3.33;;;2.20;;
49998;SDS011;68071;45.062;7.356;2023-03-16T07:00:07;5.30;;;2.13;;
49998;SDS011;68071;45.062;7.356;2023-03-16T07:03:13;2.72;;;2.20;;
49998;SDS011;68071;45.062;7.356;2023-03-16T07:06:23;2.38;;;2.00;;
49998;SDS011;68071;45.062;7.356;2023-03-16T07:09:27;3.63;;;2.13;;
49998;SDS011;68071;45.062;7.356;2023-03-16T07:12:31;3.72;;;2.00;;
49998;SDS011;68071;45.062;7.356;2023-03-16T07:15:35;3.42;;;2.47;;
49998;SDS011;68071;45.062;7.356;2023-03-16T07:18:42;2.55;;;2.28;;
49998;SDS011;68071;45.062;7.356;2023-03-16T07:21:48;3.70;;;2.70;;
49998;SDS011;68071;45.062;7.356;2023-03-16T07:24:56;2.60;;;2.22;;
49998;SDS011;68071;45.062;7.356;2023-03-16T07:28:02;3.55;;;2.30;;
49998;SDS011;68071;45.062;7.356;2023-03-16T07:31:12;3.63;;;2.90;;
49998;SDS011;68071;45.062;7.356;2023-03-16T07:34:18;4.25;;;3.13;;
49998;SDS011;68071;45.062;7.356;2023-03-16T07:37:28;4.68;;;2.78;;
49998;SDS011;68071;45.062;7.356;2023-03-16T07:40:35;3.17;;;2.40;;
49998;SDS011;68071;45.062;7.356;2023-03-16T07:43:47;3.65;;;2.65;;
49998;SDS011;68071;45.062;7.356;2023-03-16T07:46:51;9.05;;;3.30;;
49998;SDS011;68071;45.062;7.356;2023-03-16T07:49:58;4.10;;;2.40;;
49998;SDS011;68071;45.062;7.356;2023-03-16T07:56:10;4.78;;;2.90;;
49998;SDS011;68071;45.062;7.356;2023-03-16T07:59:17;3.88;;;2.20;;
49998;SDS011;68071;45.062;7.356;2023-03-16T08:02:21;4.93;;;2.90;;
49998;SDS011;68071;45.062;7.356;2023-03-16T08:05:26;2.72;;;2.13;;
49998;SDS011;68071;45.062;7.356;2023-03-16T08:08:35;2.95;;;2.58;;
49998;SDS011;68071;45.062;7.356;2023-03-16T08:11:40;2.70;;;2.10;;
49998;SDS011;68071;45.062;7.356;2023-03-16T08:14:44;3.15;;;2.17;;
49998;SDS011;68071;45.062;7.356;2023-03-16T08:18:00;3.38;;;2.58;;
49998;SDS011;68071;45.062;7.356;2023-03-16T08:21:10;3.00;;;2.05;;
49998;SDS011;68071;45.062;7.356;2023-03-16T08:24:14;3.40;;;2.60;;
49998;SDS011;68071;45.062;7.356;2023-03-16T08:27:18;3.67;;;2.40;;
49998;SDS011;68071;45.062;7.356;2023-03-16T08:30:27;2.60;;;2.25;;
49998;SDS011;68071;45.062;7.356;2023-03-16T08:33:58;3.15;;;2.17;;
49998;SDS011;68071;45.062;7.356;2023-03-16T08:37:04;3.22;;;2.20;;
49998;SDS011;68071;45.062;7.356;2023-03-16T08:40:10;3.08;;;2.50;;
49998;SDS011;68071;45.062;7.356;2023-03-16T08:43:20;2.83;;;2.30;;
49998;SDS011;68071;45.062;7.356;2023-03-16T08:46:25;2.90;;;2.53;;
49998;SDS011;68071;45.062;7.356;2023-03-16T08:49:34;3.45;;;2.90;;
49998;SDS011;68071;45.062;7.356;2023-03-16T08:52:47;3.85;;;2.95;;
49998;SDS011;68071;45.062;7.356;2023-03-16T08:56:04;2.85;;;2.53;;
49998;SDS011;68071;45.062;7.356;2023-03-16T08:59:10;4.55;;;2.67;;
49998;SDS011;68071;45.062;7.356;2023-03-16T09:02:14;3.05;;;2.60;;
49998;SDS011;68071;45.062;7.356;2023-03-16T09:05:18;4.05;;;2.65;;
49998;SDS011;68071;45.062;7.356;2023-03-16T09:08:22;4.15;;;2.75;;
49998;SDS011;68071;45.062;7.356;2023-03-16T09:11:26;3.72;;;2.72;;
49998;SDS011;68071;45.062;7.356;2023-03-16T09:14:33;4.15;;;2.80;;
49998;SDS011;68071;45.062;7.356;2023-03-16T09:17:40;3.35;;;2.78;;
49998;SDS011;68071;45.062;7.356;2023-03-16T09:20:45;4.40;;;2.70;;
49998;SDS011;68071;45.062;7.356;2023-03-16T09:23:50;3.03;;;2.50;;
49998;SDS011;68071;45.062;7.356;2023-03-16T09:26:54;3.40;;;2.83;;
49998;SDS011;68071;45.062;7.356;2023-03-16T09:29:58;3.53;;;2.60;;
49998;SDS011;68071;45.062;7.356;2023-03-16T09:33:03;3.27;;;2.60;;
49998;SDS011;68071;45.062;7.356;2023-03-16T09:36:07;3.75;;;2.63;;
49998;SDS011;68071;45.062;7.356;2023-03-16T09:39:13;3.67;;;2.80;;
49998;SDS011;68071;45.062;7.356;2023-03-16T09:42:19;3.35;;;2.72;;
49998;SDS011;68071;45.062;7.356;2023-03-16T09:45:58;3.40;;;2.70;;
49998;SDS011;68071;45.062;7.356;2023-03-16T09:49:10;5.03;;;3.15;;
49998;SDS011;68071;45.062;7.356;2023-03-16T09:55:30;3.80;;;2.60;;
49998;SDS011;68071;45.062;7.356;2023-03-16T09:58:40;3.17;;;2.83;;
49998;SDS011;68071;45.062;7.356;2023-03-16T10:01:51;11.90;;;8.25;;
49998;SDS011;68071;45.062;7.356;2023-03-16T10:08:09;5.15;;;3.50;;
49998;SDS011;68071;45.062;7.356;2023-03-16T10:11:40;4.20;;;3.00;;
49998;SDS011;68071;45.062;7.356;2023-03-16T10:14:57;3.08;;;2.72;;
49998;SDS011;68071;45.062;7.356;2023-03-16T10:18:16;6.18;;;3.22;;
49998;SDS011;68071;45.062;7.356;2023-03-16T10:21:23;3.33;;;2.55;;
49998;SDS011;68071;45.062;7.356;2023-03-16T10:24:35;4.28;;;2.78;;
49998;SDS011;68071;45.062;7.356;2023-03-16T10:27:41;3.33;;;2.67;;
49998;SDS011;68071;45.062;7.356;2023-03-16T10:30:48;3.20;;;2.70;;
49998;SDS011;68071;45.062;7.356;2023-03-16T10:33:56;3.55;;;3.25;;
49998;SDS011;68071;45.062;7.356;2023-03-16T10:37:05;4.38;;;3.33;;
49998;SDS011;68071;45.062;7.356;2023-03-16T10:40:12;5.63;;;3.33;;
49998;SDS011;68071;45.062;7.356;2023-03-16T10:43:16;4.03;;;3.38;;
49998;SDS011;68071;45.062;7.356;2023-03-16T10:46:20;3.85;;;3.22;;
49998;SDS011;68071;45.062;7.356;2023-03-16T10:49:25;5.15;;;3.40;;
49998;SDS011;68071;45.062;7.356;2023-03-16T10:52:39;3.53;;;3.22;;
49998;SDS011;68071;45.062;7.356;2023-03-16T10:55:46;4.40;;;3.25;;
49998;SDS011;68071;45.062;7.356;2023-03-16T10:58:51;4.68;;;3.20;;
49998;SDS011;68071;45.062;7.356;2023-03-16T11:01:55;4.70;;;3.45;;
49998;SDS011;68071;45.062;7.356;2023-03-16T11:05:10;5.13;;;3.28;;
49998;SDS011;68071;45.062;7.356;2023-03-16T11:08:38;5.20;;;3.30;;
49998;SDS011;68071;45.062;7.356;2023-03-16T11:11:47;4.45;;;3.67;;
49998;SDS011;68071;45.062;7.356;2023-03-16T11:14:52;3.92;;;3.10;;
49998;SDS011;68071;45.062;7.356;2023-03-16T11:17:56;3.97;;;3.30;;
49998;SDS011;68071;45.062;7.356;2023-03-16T11:21:08;4.38;;;3.42;;
49998;SDS011;68071;45.062;7.356;2023-03-16T11:24:24;4.85;;;3.15;;
49998;SDS011;68071;45.062;7.356;2023-03-16T11:27:37;5.13;;;3.92;;
49998;SDS011;68071;45.062;7.356;2023-03-16T11:41:00;4.70;;;3.72;;
49998;SDS011;68071;45.062;7.356;2023-03-16T11:47:54;4.13;;;3.42;;
49998;SDS011;68071;45.062;7.356;2023-03-16T11:54:33;4.90;;;3.90;;
49998;SDS011;68071;45.062;7.356;2023-03-16T12:11:27;5.45;;;4.10;;
49998;SDS011;68071;45.062;7.356;2023-03-16T12:21:26;6.28;;;4.50;;
49998;SDS011;68071;45.062;7.356;2023-03-16T12:24:37;4.32;;;3.92;;
49998;SDS011;68071;45.062;7.356;2023-03-16T12:27:46;5.63;;;3.58;;
49998;SDS011;68071;45.062;7.356;2023-03-16T12:31:01;6.57;;;4.32;;
49998;SDS011;68071;45.062;7.356;2023-03-16T12:34:20;6.22;;;4.35;;
49998;SDS011;68071;45.062;7.356;2023-03-16T12:37:57;5.75;;;3.85;;
49998;SDS011;68071;45.062;7.356;2023-03-16T12:44:14;5.38;;;4.00;;
49998;SDS011;68071;45.062;7.356;2023-03-16T12:50:47;5.45;;;4.20;;
49998;SDS011;68071;45.062;7.356;2023-03-16T12:53:55;4.70;;;4.20;;
49998;SDS011;68071;45.062;7.356;2023-03-16T13:00:07;4.53;;;3.88;;
49998;SDS011;68071;45.062;7.356;2023-03-16T13:06:20;8.03;;;4.33;;
49998;SDS011;68071;45.062;7.356;2023-03-16T13:09:27;5.32;;;4.18;;
49998;SDS011;68071;45.062;7.356;2023-03-16T13:12:35;5.28;;;4.15;;
49998;SDS011;68071;45.062;7.356;2023-03-16T13:15:42;6.63;;;4.55;;
49998;SDS011;68071;45.062;7.356;2023-03-16T13:18:49;7.13;;;4.93;;
49998;SDS011;68071;45.062;7.356;2023-03-16T13:22:05;5.35;;;4.50;;
49998;SDS011;68071;45.062;7.356;2023-03-16T13:28:36;5.53;;;4.80;;
49998;SDS011;68071;45.062;7.356;2023-03-16T13:31:41;5.68;;;4.70;;
49998;SDS011;68071;45.062;7.356;2023-03-16T13:34:49;6.28;;;5.13;;
49998;SDS011;68071;45.062;7.356;2023-03-16T13:38:01;6.07;;;4.78;;
49998;SDS011;68071;45.062;7.356;2023-03-16T13:41:09;6.57;;;5.05;;
49998;SDS011;68071;45.062;7.356;2023-03-16T13:44:14;6.03;;;4.47;;
49998;SDS011;68071;45.062;7.356;2023-03-16T13:47:21;6.15;;;4.55;;
49998;SDS011;68071;45.062;7.356;2023-03-16T13:50:26;5.72;;;4.65;;
49998;SDS011;68071;45.062;7.356;2023-03-16T13:53:29;5.78;;;5.13;;
49998;SDS011;68071;45.062;7.356;2023-03-16T13:56:35;6.38;;;5.30;;
49998;SDS011;68071;45.062;7.356;2023-03-16T13:59:40;5.82;;;5.22;;
49998;SDS011;68071;45.062;7.356;2023-03-16T14:02:47;7.80;;;5.22;;
49998;SDS011;68071;45.062;7.356;2023-03-16T14:05:55;7.13;;;5.15;;
49998;SDS011;68071;45.062;7.356;2023-03-16T14:09:01;6.75;;;5.03;;
49998;SDS011;68071;45.062;7.356;2023-03-16T14:12:12;6.50;;;5.45;;
49998;SDS011;68071;45.062;7.356;2023-03-16T14:15:17;5.35;;;4.82;;
49998;SDS011;68071;45.062;7.356;2023-03-16T14:18:22;5.90;;;5.15;;
49998;SDS011;68071;45.062;7.356;2023-03-16T14:21:30;5.78;;;5.18;;
49998;SDS011;68071;45.062;7.356;2023-03-16T14:24:39;7.30;;;5.20;;
49998;SDS011;68071;45.062;7.356;2023-03-16T14:27:43;5.93;;;5.18;;
49998;SDS011;68071;45.062;7.356;2023-03-16T14:33:58;6.32;;;5.72;;
49998;SDS011;68071;45.062;7.356;2023-03-16T14:37:05;8.15;;;5.60;;
49998;SDS011;68071;45.062;7.356;2023-03-16T14:40:29;7.05;;;5.63;;
49998;SDS011;68071;45.062;7.356;2023-03-16T14:43:35;9.77;;;5.45;;
49998;SDS011;68071;45.062;7.356;2023-03-16T14:46:44;6.65;;;5.40;;
49998;SDS011;68071;45.062;7.356;2023-03-16T14:49:48;6.40;;;5.47;;
49998;SDS011;68071;45.062;7.356;2023-03-16T14:52:53;7.53;;;5.37;;
49998;SDS011;68071;45.062;7.356;2023-03-16T14:55:59;8.70;;;6.30;;
49998;SDS011;68071;45.062;7.356;2023-03-16T14:59:03;6.00;;;5.40;;
49998;SDS011;68071;45.062;7.356;2023-03-16T15:02:15;6.30;;;5.10;;
49998;SDS011;68071;45.062;7.356;2023-03-16T15:05:23;7.60;;;5.50;;
49998;SDS011;68071;45.062;7.356;2023-03-16T15:08:34;5.32;;;4.88;;
49998;SDS011;68071;45.062;7.356;2023-03-16T15:11:46;5.43;;;4.93;;
49998;SDS011;68071;45.062;7.356;2023-03-16T15:14:50;5.30;;;4.80;;
49998;SDS011;68071;45.062;7.356;2023-03-16T15:18:13;5.88;;;5.20;;
49998;SDS011;68071;45.062;7.356;2023-03-16T15:21:21;11.50;;;5.75;;
49998;SDS011;68071;45.062;7.356;2023-03-16T15:24:27;6.13;;;5.32;;
49998;SDS011;68071;45.062;7.356;2023-03-16T15:27:34;6.72;;;5.18;;
49998;SDS011;68071;45.062;7.356;2023-03-16T15:30:38;7.30;;;5.57;;
49998;SDS011;68071;45.062;7.356;2023-03-16T15:33:43;6.05;;;5.50;;
49998;SDS011;68071;45.062;7.356;2023-03-16T15:36:48;5.97;;;5.45;;
49998;SDS011;68071;45.062;7.356;2023-03-16T15:39:51;5.78;;;5.20;;
49998;SDS011;68071;45.062;7.356;2023-03-16T15:42:55;7.10;;;5.43;;
49998;SDS011;68071;45.062;7.356;2023-03-16T15:46:00;6.90;;;4.80;;
49998;SDS011;68071;45.062;7.356;2023-03-16T15:49:04;5.60;;;5.10;;
49998;SDS011;68071;45.062;7.356;2023-03-16T15:52:17;5.80;;;5.25;;
49998;SDS011;68071;45.062;7.356;2023-03-16T15:55:32;5.68;;;5.10;;
49998;SDS011;68071;45.062;7.356;2023-03-16T15:58:40;6.03;;;5.22;;
49998;SDS011;68071;45.062;7.356;2023-03-16T16:01:48;6.18;;;5.28;;
49998;SDS011;68071;45.062;7.356;2023-03-16T16:04:54;7.15;;;5.70;;
49998;SDS011;68071;45.062;7.356;2023-03-16T16:07:59;5.32;;;4.82;;
49998;SDS011;68071;45.062;7.356;2023-03-16T16:11:04;5.93;;;5.35;;
49998;SDS011;68071;45.062;7.356;2023-03-16T16:14:17;5.70;;;5.05;;
49998;SDS011;68071;45.062;7.356;2023-03-16T16:17:25;5.70;;;5.20;;
49998;SDS011;68071;45.062;7.356;2023-03-16T16:20:31;5.47;;;4.95;;
49998;SDS011;68071;45.062;7.356;2023-03-16T16:23:36;5.57;;;4.85;;
49998;SDS011;68071;45.062;7.356;2023-03-16T16:26:42;5.65;;;4.65;;
49998;SDS011;68071;45.062;7.356;2023-03-16T16:29:52;5.97;;;5.30;;
49998;SDS011;68071;45.062;7.356;2023-03-16T16:32:56;7.70;;;5.43;;
49998;SDS011;68071;45.062;7.356;2023-03-16T16:36:02;4.93;;;4.35;;
49998;SDS011;68071;45.062;7.356;2023-03-16T16:39:13;7.20;;;5.25;;
49998;SDS011;68071;45.062;7.356;2023-03-16T16:42:18;7.90;;;5.32;;
49998;SDS011;68071;45.062;7.356;2023-03-16T16:45:23;6.63;;;5.03;;
49998;SDS011;68071;45.062;7.356;2023-03-16T16:48:32;5.78;;;5.22;;
49998;SDS011;68071;45.062;7.356;2023-03-16T16:51:39;5.68;;;5.18;;
49998;SDS011;68071;45.062;7.356;2023-03-16T16:54:43;6.57;;;4.78;;
49998;SDS011;68071;45.062;7.356;2023-03-16T16:57:48;5.00;;;4.40;;
49998;SDS011;68071;45.062;7.356;2023-03-16T17:00:56;5.90;;;4.25;;
49998;SDS011;68071;45.062;7.356;2023-03-16T17:04:01;4.68;;;4.13;;
49998;SDS011;68071;45.062;7.356;2023-03-16T17:07:08;4.78;;;4.20;;
49998;SDS011;68071;45.062;7.356;2023-03-16T17:10:15;4.53;;;3.92;;
49998;SDS011;68071;45.062;7.356;2023-03-16T17:13:31;6.20;;;4.35;;
49998;SDS011;68071;45.062;7.356;2023-03-16T17:16:43;5.03;;;4.10;;
49998;SDS011;68071;45.062;7.356;2023-03-16T17:19:49;4.82;;;4.13;;
49998;SDS011;68071;45.062;7.356;2023-03-16T17:22:55;4.75;;;4.25;;
49998;SDS011;68071;45.062;7.356;2023-03-16T17:26:01;4.95;;;4.22;;
49998;SDS011;68071;45.062;7.356;2023-03-16T17:32:29;4.90;;;4.50;;
49998;SDS011;68071;45.062;7.356;2023-03-16T17:35:33;7.88;;;5.60;;
49998;SDS011;68071;45.062;7.356;2023-03-16T17:38:37;8.18;;;6.05;;
49998;SDS011;68071;45.062;7.356;2023-03-16T17:41:41;7.40;;;6.60;;
49998;SDS011;68071;45.062;7.356;2023-03-16T17:44:47;7.87;;;7.07;;
49998;SDS011;68071;45.062;7.356;2023-03-16T17:47:53;9.63;;;7.82;;
49998;SDS011;68071;45.062;7.356;2023-03-16T17:50:58;14.70;;;10.80;;
49998;SDS011;68071;45.062;7.356;2023-03-16T17:54:02;21.85;;;17.95;;
49998;SDS011;68071;45.062;7.356;2023-03-16T17:57:09;23.73;;;17.63;;
49998;SDS011;68071;45.062;7.356;2023-03-16T18:00:29;22.17;;;16.58;;
49998;SDS011;68071;45.062;7.356;2023-03-16T18:03:35;18.45;;;13.70;;
49998;SDS011;68071;45.062;7.356;2023-03-16T18:06:39;18.67;;;14.38;;
49998;SDS011;68071;45.062;7.356;2023-03-16T18:09:45;12.90;;;11.57;;
49998;SDS011;68071;45.062;7.356;2023-03-16T18:12:54;14.50;;;11.27;;
49998;SDS011;68071;45.062;7.356;2023-03-16T18:16:07;13.02;;;10.52;;
49998;SDS011;68071;45.062;7.356;2023-03-16T18:19:22;12.18;;;10.60;;
49998;SDS011;68071;45.062;7.356;2023-03-16T18:22:27;11.57;;;10.38;;
49998;SDS011;68071;45.062;7.356;2023-03-16T18:25:33;10.80;;;9.70;;
49998;SDS011;68071;45.062;7.356;2023-03-16T18:28:41;12.88;;;10.20;;
49998;SDS011;68071;45.062;7.356;2023-03-16T18:31:46;10.35;;;9.27;;
49998;SDS011;68071;45.062;7.356;2023-03-16T18:34:52;11.43;;;8.98;;
49998;SDS011;68071;45.062;7.356;2023-03-16T18:37:57;9.70;;;8.70;;
49998;SDS011;68071;45.062;7.356;2023-03-16T18:41:12;11.15;;;9.32;;
49998;SDS011;68071;45.062;7.356;2023-03-16T18:44:19;11.65;;;8.82;;
49998;SDS011;68071;45.062;7.356;2023-03-16T18:47:26;11.05;;;9.93;;
49998;SDS011;68071;45.062;7.356;2023-03-16T18:50:34;12.73;;;10.65;;
49998;SDS011;68071;45.062;7.356;2023-03-16T18:53:38;11.85;;;10.43;;
49998;SDS011;68071;45.062;7.356;2023-03-16T18:56:42;11.63;;;9.90;;
49998;SDS011;68071;45.062;7.356;2023-03-16T18:59:46;11.77;;;10.15;;
49998;SDS011;68071;45.062;7.356;2023-03-16T19:02:53;12.00;;;10.68;;
49998;SDS011;68071;45.062;7.356;2023-03-16T19:06:01;12.68;;;9.55;;
49998;SDS011;68071;45.062;7.356;2023-03-16T19:09:06;11.43;;;10.20;;
49998;SDS011;68071;45.062;7.356;2023-03-16T19:12:17;11.55;;;10.40;;
49998;SDS011;68071;45.062;7.356;2023-03-16T19:15:24;11.40;;;9.80;;
49998;SDS011;68071;45.062;7.356;2023-03-16T19:18:30;13.25;;;10.20;;
49998;SDS011;68071;45.062;7.356;2023-03-16T19:21:44;11.32;;;9.80;;
49998;SDS011;68071;45.062;7.356;2023-03-16T19:24:50;12.15;;;10.13;;
49998;SDS011;68071;45.062;7.356;2023-03-16T19:27:57;13.18;;;11.82;;
49998;SDS011;68071;45.062;7.356;2023-03-16T19:31:06;13.53;;;12.13;;
49998;SDS011;68071;45.062;7.356;2023-03-16T19:34:26;13.07;;;11.77;;
49998;SDS011;68071;45.062;7.356;2023-03-16T19:37:31;12.00;;;10.80;;
49998;SDS011;68071;45.062;7.356;2023-03-16T19:40:35;12.25;;;10.52;;
49998;SDS011;68071;45.062;7.356;2023-03-16T19:43:39;14.75;;;12.93;;
49998;SDS011;68071;45.062;7.356;2023-03-16T19:46:43;15.07;;;13.48;;
49998;SDS011;68071;45.062;7.356;2023-03-16T19:49:48;16.43;;;14.80;;
49998;SDS011;68071;45.062;7.356;2023-03-16T19:52:51;16.60;;;14.45;;
49998;SDS011;68071;45.062;7.356;2023-03-16T19:55:57;16.33;;;14.05;;
49998;SDS011;68071;45.062;7.356;2023-03-16T19:59:02;12.80;;;11.50;;
49998;SDS011;68071;45.062;7.356;2023-03-16T20:05:29;12.82;;;11.52;;
49998;SDS011;68071;45.062;7.356;2023-03-16T20:08:33;12.85;;;11.65;;
49998;SDS011;68071;45.062;7.356;2023-03-16T20:11:37;12.85;;;10.90;;
49998;SDS011;68071;45.062;7.356;2023-03-16T20:14:42;11.23;;;10.02;;
49998;SDS011;68071;45.062;7.356;2023-03-16T20:17:48;10.45;;;9.32;;
49998;SDS011;68071;45.062;7.356;2023-03-16T20:20:53;10.50;;;9.27;;
49998;SDS011;68071;45.062;7.356;2023-03-16T20:23:58;11.82;;;10.45;;